Enter the Airport ICAO Code

Search by Airport or City

Current Weather

SAZM | Astor Piazzolla International Airport

Mar del Plata, Buenos Aires, Argentina

Last Update 17 Minutes Ago

Mostly Cloudy Sky

Temperature of 18 ºC

Light to Moderate Winds from South

Temperature

18 ºC

Dew Point Temperature

11 ºC

Relative Humidity

63.77 %

Wind Direction

South (200º, Ranging from 170º to 240º)

Wind Velocity

13 km/h (07 kt)

Gusts

None

Visibility

Greater than 10 Kilometers

Sea Level Pressure

1008 hPa (Hectopascals)

Layers of Clouds

5% to 30% of Sky Covered with Cumulonimbus from 1829 mts (6000 ft) Above Ground Level.

60% to 90% of Sky Covered from 2438 mts (8000 ft) Above Ground Level.

METAR SAZM 022200Z 20007KT 170V240 9999 FEW060CB BKN080 18/11 Q1008

Weather Forecast

SAZM | Astor Piazzolla International Airport

Mar del Plata, Buenos Aires, Argentina

Forecast valid for the next 20 Hours

In the next hour it is expected the begining of:

Rain

Moderate Winds from SouthWest

In 5 to 8 hours it is expected the begining of:

Clear Sky

Moderate Winds from South

In 17 to 20 hours it is expected the begining of:

Partly Cloudy Sky

Maximum Temperature

24 ºC in 20 Hours

Minimum Temperature

No Data

TAF SAZM 021700Z 0218/0318 30015G25KT 9999 SCT030 FEW040CB BKN060 TX24/0318Z TN10/0310Z BECMG 0220/0223 23015KT 8000 SHRA SCT040TCU FEW050CB BECMG 0303/0306 18015KT CAVOK BECMG 0315/0318 16010KT 9999 SCT020